createdAt,value
2023-07-06T00:00:02.753Z,7.40
2023-07-06T00:05:00.716Z,7.50
2023-07-06T00:10:00.660Z,6.50
2023-07-06T00:15:00.725Z,6.40
2023-07-06T00:20:00.757Z,5.80
2023-07-06T00:25:00.681Z,4.80
2023-07-06T00:30:00.694Z,4.80
2023-07-06T00:35:00.784Z,4.30
2023-07-06T00:40:00.700Z,4.70
2023-07-06T00:45:01.048Z,4.20
2023-07-06T00:50:04.954Z,3.90
2023-07-06T00:55:01.938Z,4.60
2023-07-06T01:00:02.549Z,3.80
2023-07-06T01:05:01.184Z,4.10
2023-07-06T01:10:01.252Z,5.10
2023-07-06T01:15:00.964Z,5.20
2023-07-06T01:20:20.592Z,5.50
2023-07-06T01:25:18.127Z,5.50
2023-07-06T01:30:18.252Z,5.70
2023-07-06T01:35:09.984Z,6.30
2023-07-06T01:40:00.726Z,6.90
2023-07-06T01:45:04.677Z,5.90
2023-07-06T01:50:03.487Z,6.40
2023-07-06T01:55:15.038Z,5.70
2023-07-06T02:00:03.657Z,5.00
2023-07-06T02:05:00.941Z,6.50
2023-07-06T02:10:00.748Z,6.90
2023-07-06T02:15:00.793Z,7.60
2023-07-06T02:20:00.743Z,7.10
2023-07-06T02:25:00.724Z,7.50
2023-07-06T02:30:00.723Z,7.20
2023-07-06T02:35:01.002Z,7.60
2023-07-06T02:40:00.690Z,8.50
2023-07-06T02:45:01.485Z,6.60
2023-07-06T02:50:00.753Z,5.40
2023-07-06T02:55:00.706Z,5.60
2023-07-06T03:00:01.104Z,5.10
2023-07-06T03:05:00.736Z,5.10
2023-07-06T03:10:01.403Z,4.90
2023-07-06T03:15:00.762Z,4.70
2023-07-06T03:20:00.758Z,5.10
2023-07-06T03:25:00.742Z,4.60
2023-07-06T03:30:00.747Z,5.10
2023-07-06T03:35:00.730Z,4.70
2023-07-06T03:40:00.692Z,4.10
2023-07-06T03:45:00.697Z,4.40
2023-07-06T03:50:01.062Z,4.40
2023-07-06T03:55:00.825Z,4.50
2023-07-06T04:00:04.530Z,4.40
2023-07-06T04:05:00.762Z,4.30
2023-07-06T04:10:00.833Z,4.50
2023-07-06T04:15:00.692Z,4.60
2023-07-06T04:20:00.748Z,5.80
2023-07-06T04:25:00.731Z,4.70
2023-07-06T04:30:00.790Z,4.70
2023-07-06T04:35:00.765Z,4.70
2023-07-06T04:40:02.184Z,4.80
2023-07-06T04:45:00.718Z,5.00
2023-07-06T04:50:00.741Z,4.40
2023-07-06T04:55:00.751Z,5.00
2023-07-06T05:00:03.778Z,5.60
2023-07-06T05:05:00.705Z,5.60
2023-07-06T05:10:00.845Z,5.80
2023-07-06T05:15:02.459Z,5.30
2023-07-06T05:20:00.734Z,5.90
2023-07-06T05:25:00.718Z,5.70
2023-07-06T05:30:01.414Z,6.20
2023-07-06T05:35:00.888Z,6.50
2023-07-06T05:40:01.190Z,5.80
2023-07-06T05:45:01.108Z,6.10
2023-07-06T05:50:00.768Z,5.90
2023-07-06T05:55:00.710Z,6.90
2023-07-06T06:00:01.549Z,7.00
2023-07-06T06:05:00.739Z,7.00
2023-07-06T06:10:01.969Z,7.10
2023-07-06T06:15:00.732Z,7.20
2023-07-06T06:20:00.731Z,8.70
2023-07-06T06:25:01.453Z,8.80
2023-07-06T06:30:00.781Z,8.70
2023-07-06T06:35:00.814Z,10.20
2023-07-06T06:40:01.409Z,9.10
2023-07-06T06:45:00.801Z,9.30
2023-07-06T06:50:00.739Z,9.10
2023-07-06T06:55:00.700Z,9.70
2023-07-06T07:00:03.084Z,11.00
2023-07-06T07:05:00.750Z,9.50
2023-07-06T07:10:00.742Z,10.10
2023-07-06T07:15:00.694Z,10.20
2023-07-06T07:20:00.842Z,9.90
2023-07-06T07:25:00.834Z,10.20
2023-07-06T07:30:03.666Z,9.70
2023-07-06T07:35:00.844Z,8.90
2023-07-06T07:40:00.724Z,8.30
2023-07-06T07:45:00.714Z,8.50
2023-07-06T07:50:00.740Z,8.10
2023-07-06T07:55:00.760Z,7.80
2023-07-06T08:00:00.921Z,8.70
2023-07-06T08:05:00.693Z,8.30
2023-07-06T08:10:00.743Z,8.80
2023-07-06T08:15:00.764Z,8.10
2023-07-06T08:20:12.834Z,7.40
2023-07-06T08:25:00.813Z,7.30
2023-07-06T08:30:01.196Z,7.90
2023-07-06T08:35:00.719Z,7.90
2023-07-06T08:40:00.737Z,8.10
2023-07-06T08:45:01.729Z,8.50
2023-07-06T08:50:00.741Z,8.80
2023-07-06T08:55:00.781Z,9.20
2023-07-06T09:00:01.309Z,9.00
2023-07-06T09:05:07.241Z,8.80
2023-07-06T09:10:17.941Z,9.00
2023-07-06T09:15:01.912Z,9.90
2023-07-06T09:20:02.832Z,9.20
2023-07-06T09:25:01.524Z,8.50
2023-07-06T09:30:06.714Z,8.50
2023-07-06T09:35:13.034Z,7.70
2023-07-06T09:45:03.386Z,7.90
2023-07-06T09:50:13.623Z,7.30
2023-07-06T09:55:12.526Z,9.30
2023-07-06T10:00:03.308Z,8.50
2023-07-06T10:05:10.712Z,8.20
2023-07-06T10:10:01.729Z,6.60
2023-07-06T10:15:06.083Z,6.40
2023-07-06T10:20:13.315Z,5.00
2023-07-06T10:25:20.593Z,5.10
2023-07-06T10:30:06.043Z,5.00
2023-07-06T10:35:07.932Z,4.90
2023-07-06T10:40:09.731Z,4.90
2023-07-06T10:45:02.195Z,6.20
2023-07-06T10:50:09.650Z,5.20
2023-07-06T10:55:02.367Z,6.40
2023-07-06T11:00:15.295Z,5.00
2023-07-06T11:05:10.273Z,5.70
2023-07-06T11:10:11.701Z,3.00
2023-07-06T11:15:15.927Z,3.80
2023-07-06T11:20:09.893Z,4.80
2023-07-06T11:25:00.870Z,4.30
2023-07-06T11:30:13.604Z,3.30
2023-07-06T11:35:20.623Z,2.80
2023-07-06T11:40:04.953Z,2.50
2023-07-06T11:45:12.334Z,2.40
2023-07-06T11:50:05.615Z,2.10
2023-07-06T11:55:03.719Z,2.10
2023-07-06T12:00:04.750Z,1.70
2023-07-06T12:05:00.893Z,1.70
2023-07-06T12:10:03.248Z,1.70
2023-07-06T12:15:00.852Z,1.30
2023-07-06T12:20:02.353Z,1.50
2023-07-06T12:25:00.761Z,1.30
2023-07-06T12:30:03.445Z,1.30
2023-07-06T12:35:00.781Z,1.40
2023-07-06T12:40:00.703Z,1.50
2023-07-06T12:45:01.803Z,1.10
2023-07-06T12:50:02.078Z,1.00
2023-07-06T12:55:01.074Z,1.00
2023-07-06T13:00:10.742Z,0.80
2023-07-06T13:05:11.990Z,1.20
2023-07-06T13:10:00.712Z,1.10
2023-07-06T13:15:01.271Z,0.90
2023-07-06T13:20:00.716Z,0.90
2023-07-06T13:25:01.494Z,1.10
2023-07-06T13:30:00.716Z,1.00
2023-07-06T13:35:00.753Z,1.00
2023-07-06T13:40:00.789Z,0.90
2023-07-06T13:45:00.758Z,1.00
2023-07-06T13:50:00.703Z,0.90
2023-07-06T13:55:00.783Z,0.80
2023-07-06T14:00:01.374Z,0.80
2023-07-06T14:05:00.702Z,1.10
2023-07-06T14:10:00.763Z,0.90
2023-07-06T14:15:01.054Z,1.10
2023-07-06T14:20:03.739Z,0.90
2023-07-06T14:25:00.821Z,1.00
2023-07-06T14:30:01.117Z,0.80
2023-07-06T14:35:00.723Z,0.90
2023-07-06T14:40:00.657Z,1.20
2023-07-06T14:45:01.094Z,1.10
2023-07-06T14:50:01.050Z,0.80
2023-07-06T14:55:00.705Z,0.90
2023-07-06T15:00:01.874Z,0.80
2023-07-06T15:05:00.732Z,0.90
2023-07-06T15:10:00.959Z,1.00
2023-07-06T15:15:00.711Z,1.00
2023-07-06T15:20:00.787Z,1.20
2023-07-06T15:25:01.066Z,1.10
2023-07-06T15:30:00.678Z,1.20
2023-07-06T15:35:02.170Z,1.40
2023-07-06T15:40:00.792Z,1.30
2023-07-06T15:45:00.805Z,1.10
2023-07-06T15:50:00.658Z,1.60
2023-07-06T15:55:00.729Z,1.30
2023-07-06T16:00:10.366Z,0.90
2023-07-06T16:05:03.371Z,1.10
2023-07-06T16:10:01.221Z,1.50
2023-07-06T16:15:00.902Z,2.30
2023-07-06T16:20:00.654Z,1.20
2023-07-06T16:25:00.716Z,1.40
2023-07-06T16:30:00.689Z,1.90
2023-07-06T16:35:00.814Z,1.10
2023-07-06T16:40:00.742Z,1.10
2023-07-06T16:45:00.708Z,1.20
2023-07-06T16:50:00.752Z,1.60
2023-07-06T16:55:00.769Z,1.60
2023-07-06T17:00:00.976Z,1.60
2023-07-06T17:05:00.786Z,1.60
2023-07-06T17:10:00.794Z,1.60
2023-07-06T17:15:01.814Z,1.90
2023-07-06T17:20:00.704Z,1.90
2023-07-06T17:25:00.724Z,1.80
2023-07-06T17:30:00.744Z,1.90
2023-07-06T17:35:00.775Z,1.80
2023-07-06T17:40:02.155Z,1.80
2023-07-06T17:45:00.692Z,1.80
2023-07-06T17:50:00.712Z,2.00
2023-07-06T17:55:00.825Z,1.90
2023-07-06T18:00:01.476Z,2.20
2023-07-06T18:05:00.642Z,2.20
2023-07-06T18:10:00.694Z,2.30
2023-07-06T18:15:00.755Z,2.40
2023-07-06T18:20:00.719Z,1.90
2023-07-06T18:25:00.718Z,2.50
2023-07-06T18:30:00.930Z,2.50
2023-07-06T18:35:00.709Z,2.20
2023-07-06T18:40:00.715Z,2.50
2023-07-06T18:45:04.837Z,1.60
2023-07-06T18:50:01.054Z,1.80
2023-07-06T18:55:00.715Z,1.60
2023-07-06T19:00:01.180Z,1.60
2023-07-06T19:05:01.822Z,1.60
2023-07-06T19:10:01.038Z,1.60
2023-07-06T19:15:00.725Z,1.50
2023-07-06T19:20:00.780Z,1.50
2023-07-06T19:25:00.821Z,1.30
2023-07-06T19:30:00.710Z,1.50
2023-07-06T19:35:00.688Z,1.60
2023-07-06T19:40:01.092Z,1.70
2023-07-06T19:45:00.657Z,1.70
2023-07-06T19:50:00.680Z,1.70
2023-07-06T19:55:00.839Z,1.90
2023-07-06T20:00:02.120Z,1.80
2023-07-06T20:05:00.714Z,1.80
2023-07-06T20:10:01.093Z,1.90
2023-07-06T20:15:01.216Z,2.10
2023-07-06T20:20:01.205Z,2.50
2023-07-06T20:25:00.755Z,2.20
2023-07-06T20:30:00.703Z,2.10
2023-07-06T20:35:01.899Z,2.50
2023-07-06T20:40:00.788Z,2.70
2023-07-06T20:45:00.710Z,2.40
2023-07-06T20:50:00.771Z,2.90
2023-07-06T20:55:00.669Z,2.40
2023-07-06T21:00:02.193Z,2.90
2023-07-06T21:05:01.142Z,3.20
2023-07-06T21:10:00.920Z,3.00
2023-07-06T21:15:00.852Z,3.20
2023-07-06T21:20:00.789Z,3.00
2023-07-06T21:25:00.810Z,3.40
2023-07-06T21:30:01.070Z,3.50
2023-07-06T21:35:01.632Z,3.20
2023-07-06T21:40:00.842Z,3.60
2023-07-06T21:45:00.748Z,3.20
2023-07-06T21:50:00.677Z,3.70
2023-07-06T21:55:00.869Z,3.50
2023-07-06T22:00:03.272Z,3.70
2023-07-06T22:05:00.723Z,3.50
2023-07-06T22:10:00.745Z,3.90
2023-07-06T22:15:00.875Z,4.40
2023-07-06T22:20:00.682Z,4.70
2023-07-06T22:25:00.848Z,4.70
2023-07-06T22:30:02.162Z,4.40
2023-07-06T22:35:00.676Z,4.30
2023-07-06T22:40:00.708Z,4.80
2023-07-06T22:45:00.775Z,4.80
2023-07-06T22:50:00.749Z,4.90
2023-07-06T22:55:00.761Z,5.00
2023-07-06T23:00:02.528Z,5.30
2023-07-06T23:05:00.664Z,5.60
2023-07-06T23:10:00.995Z,5.60
2023-07-06T23:15:00.749Z,6.40
2023-07-06T23:20:00.774Z,5.60
2023-07-06T23:25:02.361Z,5.80
2023-07-06T23:30:01.111Z,7.10
2023-07-06T23:35:00.747Z,6.80
2023-07-06T23:40:00.691Z,7.00
2023-07-06T23:45:00.707Z,7.40
2023-07-06T23:50:00.888Z,6.50
2023-07-06T23:55:01.064Z,7.20
